Singer, Louisiana
Current Conditions -  °F | °C
As of 7:35 PM on Monday 22 Dec 2014 (Local Time) from KDRI Reporting Station
Broken Clouds Broken Clouds  
Wind Chill: 65°   Ceiling: 2000
Heat Index: 65°   Visibility: 10mi
Dew Point: 62°   Wind: 6mph
Humidity: 90%   Direction: 180°S
Pressure: 29.66"   Gusts: NA
Location:  30.66°N, 93.41°W
Report Text: KDRI 230135Z AUTO 18005KT 10SM BKN020 18/16 A2966 RMK AO2 T01810164
Loading
Personal Weather Stations






























Interactive Weather Map New forecast layout! Learn more

10-Day Weather Forecast

Advertisements
Track Severe Weather on mobile